• Join FlightAware (Why Join?)
  • Login
  • US Flag 
04:28PM EDT


 

Airport Tracker/Info


-or-


 

Live Flight TrackerFlight Track Log ✈ EJA941 ✈ 19-Jun-2013 ✈ KCAE - MWCR / GCM

Flight Track Log - Related Links

Times and Time Zones

All times are in EDT time to prevent confusion due to time zone crossing. See the EJA941 flight status page for this flight to view local times or setup timezone preferences in your user account.

Time Position Orientation Groundspeed Altitude Reporting Facility
EDT Latitude Longitude Course Direction KTS MPH feet Rate Location/Type
11:19AM 33.8544 -81.0694 185° South 219 252 5,700  Level Jacksonville Center
11:20AM 33.7919 -81.0733 183° South 224 258 8,500 2,400 Climbing Jacksonville Center
11:21AM 33.7275 -81.0797 185° South 237 273 10,500 1,920 Climbing Jacksonville Center
11:22AM 33.6503 -81.0861 184° South 262 302 12,400 1,740 Climbing Jacksonville Center
11:23AM 33.5628 -81.0931 184° South 294 338 14,000 1,560 Climbing Jacksonville Center
11:24AM 33.1426 -81.1500 180° South  Level FlightAware Approximate
11:24AM 33.4689 -81.0997 183° South 325 374 15,600  Level Jacksonville Center
11:25AM 33.0106 -81.1523 185° South  Level FlightAware Approximate
11:25AM 33.3667 -81.1069 183° South 350 403 17,200  Level Jacksonville Center
11:26AM 33.2667 -81.1164 185° South 364 419 18,700 1,500 Climbing Jacksonville Center
11:27AM 33.1625 -81.1258 184° South 364 419 20,300 1,560 Climbing Jacksonville Center
11:28AM 33.0583 -81.1328 183° South 364 419 21,900 1,560 Climbing Jacksonville Center
11:29AM 32.9497 -81.1400 183° South 376 433 23,500 1,560 Climbing Jacksonville Center
11:30AM 32.8433 -81.1494 184° South 382 440 25,100 1,560 Climbing Jacksonville Center
11:31AM 32.7350 -81.1564 183° South 388 447 26,700 1,740 Climbing Jacksonville Center
11:32AM 32.6161 -81.1686 185° South 388 447 28,600 1,680 Climbing Jacksonville Center
11:33AM 32.5078 -81.1781 184° South 393 452 30,100 1,380 Climbing Jacksonville Center
11:34AM 32.4058 -81.2069 193° South 403 464 31,400 1,440 Climbing Jacksonville Center
11:35AM 32.2978 -81.2458 197° South 414 476 33,000 1,560 Climbing Jacksonville Center
11:36AM 32.1875 -81.2797 195° South 414 476 34,600 1,560 Climbing Jacksonville Center
11:37AM 32.0794 -81.3161 196° South 414 476 36,200 1,500 Climbing Jacksonville Center
11:38AM 31.9692 -81.3522 196° South 414 476 37,700 1,200 Climbing Jacksonville Center
11:39AM 31.8467 -81.3908 195° South 414 476 38,700 720 Climbing Jacksonville Center
11:40AM 31.7406 -81.4244 195° South 426 490 39,200 540 Climbing Jacksonville Center
11:41AM 31.6072 -81.4681 196° South 444 511 39,800 360 Climbing Jacksonville Center
11:42AM 31.4783 -81.5089 195° South 477 549 40,000 60 Climbing Jacksonville Center
11:43AM 31.3472 -81.5472 194° South 483 556 40,000  Level Jacksonville Center
11:44AM 31.2075 -81.5711 188° South 504 580 40,000  Level Jacksonville Center
11:45AM 31.0658 -81.5903 187° South 519 597 40,000  Level Jacksonville Center
11:46AM 30.9239 -81.6114 187° South 519 597 40,000  Level Jacksonville Center
11:47AM 30.7844 -81.6303 187° South 519 597 40,000  Level Jacksonville Center
11:48AM 30.6592 -81.6464 186° South 519 597 40,000  Level Jacksonville Center
11:49AM 30.5175 -81.6653 187° South 519 597 40,000  Level Jacksonville Center
11:50AM 30.3778 -81.6814 186° South 519 597 40,000 -60 Level Jacksonville Center
11:51AM 30.2317 -81.7000 186° South 527 606 39,900  Descending Jacksonville Center
11:52AM 30.0794 -81.7261 188° South 520 598 40,000  Climbing Jacksonville Center
11:53AM 29.9525 -81.7467 188° South 504 580 40,000  Level Jacksonville Center
11:54AM 29.8128 -81.7650 186° South 504 580 40,000  Level Jacksonville Center
11:55AM 29.6708 -81.7858 187° South 504 580 40,000  Level Jacksonville Center
11:56AM 29.5311 -81.8089 188° South 509 586 40,000  Level Jacksonville Center
11:57AM 29.3894 -81.8272 186° South 509 586 40,000  Level Jacksonville Center
11:58AM 29.2456 -81.8453 186° South 515 593 40,000  Level Jacksonville Center
11:59AM 29.0911 -81.8636 186° South 515 593 40,000  Level Jacksonville Center
12:02PM 28.7686 -81.9092 187° South 516 594 40,000  Level Miami Center
12:03PM 28.6283 -81.9289 187° South 516 594 40,000  Level Miami Center
12:04PM 28.4836 -81.9483 187° South 516 594 40,000  Level Miami Center
12:05PM 28.3392 -81.9653 186° South 521 600 40,000  Level Miami Center
12:06PM 28.1944 -81.9892 188° South 527 606 40,000  Level Miami Center
12:07PM 28.0475 -82.0108 187° South 527 606 40,000  Level Miami Center
12:08PM 27.9058 -82.0067 179° South 521 600 40,000  Level Miami Center
12:09PM 27.7775 -81.9797 169° South 512 589 40,000  Level Miami Center
12:10PM 27.6367 -81.9500 169° South 522 601 40,000  Level Miami Center
12:11PM 27.4811 -81.9175 169° South 522 601 40,000  Level Miami Center
12:12PM 27.3403 -81.8903 170° South 522 601 40,000  Level Miami Center
12:13PM 27.1953 -81.8581 169° South 522 601 40,000  Level Miami Center
12:14PM 27.0667 -81.8317 170° South 522 601 40,000  Level Miami Center
12:15PM 26.9236 -81.8047 170° South 522 601 40,000 240 Level Miami Center
12:16PM 26.7828 -81.7753 169° South 522 601 40,500 480 Climbing Miami Center
12:17PM 26.6439 -81.7486 170° South 516 594 41,000 240 Climbing Miami Center
12:18PM 26.5028 -81.7172 169° South 516 594 41,000  Level Miami Center
12:19PM 26.3494 -81.6856 170° South 516 594 41,000  Level Miami Center
12:20PM 26.2106 -81.6567 169° South 516 594 41,000  Level Miami Center
12:21PM 26.0672 -81.6278 170° South 523 602 41,000  Level Miami Center
12:22PM 25.9283 -81.5992 170° South 518 596 41,000  Level Miami Center
12:23PM 25.7853 -81.5728 171° South 518 596 41,000  Level Miami Center
12:24PM 25.6400 -81.5442 170° South 524 603 41,000  Level Miami Center
12:25PM 25.4989 -81.5156 170° South 524 603 41,000  Level Miami Center
12:26PM 25.3558 -81.4756 166° South 524 603 41,000  Level Miami Center
12:27PM 25.2244 -81.4042 154° Southeast 524 603 41,000  Level Miami Center
12:28PM 25.0953 -81.3283 152° Southeast 524 603 41,000  Level Miami Center
12:29PM 24.9661 -81.2503 151° Southeast 524 603 41,000  Level Miami Center
12:30PM 24.8367 -81.1722 151° Southeast 524 603 41,000  Level Miami Center
12:31PM 24.6986 -81.1103 158° South 531 611 41,000  Level Miami Center
12:32PM 24.5522 -81.1214 184° South 519 597 41,000  Level Miami Center
12:33PM 24.4092 -81.1483 190° South 513 590 41,000  Level Miami Center
12:34PM 24.2686 -81.1731 189° South 519 597 41,000  Level Miami Center
12:35PM 24.1300 -81.1981 189° South 519 597 41,000  Level Miami Center
12:36PM 23.9936 -81.2228 189° South 514 592 41,000  Level Miami Center
12:37PM 23.8589 -81.2544 192° South 502 578 41,000  Level Miami Center
12:39PM 23.6246 -81.3044 192° South  Level FlightAware Approximate
12:46PM 22.7598 -81.4352 177° South  Level FlightAware Approximate
12:47PM 22.6343 -81.4280 177° South  Level FlightAware Approximate
12:48PM 22.5088 -81.4208 177° South  Level FlightAware Approximate
12:49PM 22.3833 -81.4137 177° South  Level FlightAware Approximate
12:50PM 22.2578 -81.4065 177° South  Level FlightAware Approximate
12:51PM 22.1323 -81.3994 177° South  Level FlightAware Approximate
12:52PM 22.0068 -81.3922 177° South  Level FlightAware Approximate
12:53PM 21.8813 -81.3851 177° South  Level FlightAware Approximate
12:54PM 21.7559 -81.3761 176° South  Level FlightAware Approximate
12:55PM 21.6305 -81.3664 176° South  Level FlightAware Approximate
12:56PM 21.5052 -81.3560 176° South  Level FlightAware Approximate
12:57PM 21.3798 -81.3500 180° South  Level FlightAware Approximate
12:58PM 21.2541 -81.3500 180° South  Level FlightAware Approximate
12:59PM 21.1289 -81.3379 175° South  Level FlightAware Approximate
01:00PM 21.0035 -81.3324 176° South  Level FlightAware Approximate
01:01PM 20.8781 -81.3234 176° South  Level FlightAware Approximate
01:02PM 20.7527 -81.3146 176° South  Level FlightAware Approximate
01:03PM 20.6273 -81.3063 176° South  Level FlightAware Approximate
01:04PM 20.5018 -81.2989 178° South  Level FlightAware Approximate
01:05PM 20.3762 -81.2944 178° South  Level FlightAware Approximate
01:06PM 20.2505 -81.2899 178° South  Level FlightAware Approximate
01:07PM 20.1249 -81.2854 178° South  Level FlightAware Approximate
01:08PM 20.0000 -81.2826 90° East  Level FlightAware Approximate
01:09PM 19.8905 -81.2841 184° South  Level FlightAware Approximate
01:10PM 19.7652 -81.2937 184° South  Level FlightAware Approximate
01:11PM 19.6399 -81.3043 185° South  Level FlightAware Approximate
01:12PM 19.5148 -81.3167 180° South  Level FlightAware Approximate
01:13PM 19.3926 -81.3333 180° South  Level FlightAware Approximate
01:14PM 19.2928 -81.3577 191° South  Level Estimated
01:15PM 19.2928 -81.3577 191° South  Level Estimated
01:16PM 19.2928 -81.3577 191° South  Level Estimated
01:17PM 19.2928 -81.3577 191° South  Level Estimated
01:18PM 19.2928 -81.3577 191° South  Level Estimated
01:19PM 19.2928 -81.3577 191° South  Level Estimated
01:20PM 19.2928 -81.3577 191° South  Level Estimated
01:21PM 19.2928 -81.3577 191° South  Level Estimated
01:22PM 19.2928 -81.3577 191° South  Level Estimated
01:23PM 19.2928 -81.3577 191° South  Level Estimated
01:24PM 19.2928 -81.3577 191° South  Level Estimated
01:25PM 19.2928 -81.3577 191° South  Level Estimated
01:26PM 19.2928 -81.3577 191° South  Level Estimated
01:27PM 19.2928 -81.3577 191° South  Level Estimated
01:28PM 19.2928 -81.3577 191° South  Level Estimated
01:29PM 19.2928 -81.3577 191° South  Level Estimated
01:30PM 19.2928 -81.3577 191° South  Level Estimated
01:31PM 19.2928 -81.3577 191° South  Level Estimated
01:32PM 19.2928 -81.3577 191° South  Level Estimated